createdAt,value
2022-11-24T02:51:56.950Z,99192.54
2022-11-24T02:52:58.796Z,99190.16
2022-11-24T02:54:01.349Z,99194.37
2022-11-24T02:55:04.130Z,99186.71
2022-11-24T02:56:07.694Z,99195.19
2022-11-24T02:57:11.235Z,99181.50
2022-11-24T02:58:13.080Z,99189.16
2022-11-24T02:59:24.394Z,99187.37
2022-11-24T03:00:31.504Z,99189.00
2022-11-24T03:01:34.129Z,99182.20
2022-11-24T03:02:36.419Z,99193.27
2022-11-24T03:03:38.470Z,99187.31
2022-11-24T03:04:41.404Z,99190.62
2022-11-24T03:05:43.791Z,99181.26
2022-11-24T03:06:46.824Z,99192.33
2022-11-24T03:07:49.378Z,99201.66
2022-11-24T03:08:51.324Z,99198.23
2022-11-24T03:09:53.180Z,99199.81
2022-11-24T03:10:55.034Z,99198.08
2022-11-24T03:11:57.230Z,99192.14
2022-11-24T03:12:59.231Z,99189.52
2022-11-24T03:14:01.005Z,99196.30
2022-11-24T03:15:03.368Z,99193.61
2022-11-24T03:16:08.223Z,99188.46
2022-11-24T03:17:10.531Z,99192.02
2022-11-24T03:18:12.327Z,99187.72
2022-11-24T03:19:14.198Z,99174.05
2022-11-24T03:20:17.269Z,99164.68
2022-11-24T03:21:20.279Z,99169.84
2022-11-24T03:22:22.868Z,99169.84
2022-11-24T03:23:25.398Z,99171.49
2022-11-24T03:24:28.025Z,99169.80
2022-11-24T03:25:30.031Z,99164.68
2022-11-24T03:26:33.675Z,99172.38
2022-11-24T03:27:36.641Z,99172.43
2022-11-24T03:28:38.655Z,99165.55
2022-11-24T03:29:41.006Z,99163.94
2022-11-24T03:30:44.204Z,99155.41
2022-11-24T03:31:46.076Z,99146.86
2022-11-24T03:32:50.061Z,99151.16
2022-11-24T03:33:52.678Z,99145.16
2022-11-24T03:34:55.283Z,99146.80
2022-11-24T03:35:57.842Z,99143.38
2022-11-24T03:37:00.693Z,99143.48
2022-11-24T03:38:02.526Z,99143.56
2022-11-24T03:39:04.798Z,99152.88
2022-11-24T03:40:08.047Z,99152.83
2022-11-24T03:41:10.108Z,99154.61
2022-11-24T03:42:12.032Z,99158.83
2022-11-24T03:43:14.248Z,99148.55
2022-11-24T03:44:18.045Z,99157.11
2022-11-24T03:45:44.827Z,99144.48
2022-11-24T03:46:24.460Z,99139.41
2022-11-24T03:47:26.621Z,99142.83
2022-11-24T03:48:28.316Z,99144.48
2022-11-24T03:49:30.439Z,99145.31
2022-11-24T03:50:32.413Z,99142.65
2022-11-24T03:51:34.305Z,99130.56
2022-11-24T03:52:36.076Z,99128.88
2022-11-24T03:53:38.037Z,99135.01
2022-11-24T03:54:40.334Z,99126.57
2022-11-24T03:55:42.751Z,99131.70
2022-11-24T03:56:44.848Z,99135.16
2022-11-24T03:57:46.632Z,99137.64
2022-11-24T03:58:48.603Z,99136.80
2022-11-24T03:59:50.597Z,99135.10
2022-11-24T04:00:53.663Z,99129.91
2022-11-24T04:01:56.099Z,99132.34
2022-11-24T04:02:58.480Z,99142.58
2022-11-24T04:04:00.396Z,99140.06
2022-11-24T04:05:03.334Z,99141.81
2022-11-24T04:06:05.796Z,99133.33
2022-11-24T04:07:07.905Z,99125.72
2022-11-24T04:08:09.906Z,99128.27
2022-11-24T04:09:11.694Z,99123.91
2022-11-24T04:10:13.691Z,99129.76
2022-11-24T04:11:15.652Z,99129.81
2022-11-24T04:12:17.406Z,99126.50
2022-11-24T04:13:22.827Z,99124.72
2022-11-24T04:14:25.248Z,99117.03
2022-11-24T04:15:27.712Z,99127.20
2022-11-24T04:16:29.777Z,99128.90
2022-11-24T04:17:31.697Z,99126.27
2022-11-24T04:18:33.443Z,99131.36
2022-11-24T04:19:35.323Z,99133.94
2022-11-24T04:20:37.792Z,99135.63
2022-11-24T04:21:39.961Z,99129.73
2022-11-24T04:22:42.529Z,99123.75
2022-11-24T04:23:44.614Z,99125.53
2022-11-24T04:24:46.419Z,99119.53
2022-11-24T04:25:48.318Z,99129.68
2022-11-24T04:26:50.168Z,99122.06
2022-11-24T04:27:53.859Z,99123.78
2022-11-24T04:28:55.971Z,99125.48
2022-11-24T04:29:57.762Z,99117.00
2022-11-24T04:31:02.957Z,99117.00
2022-11-24T04:32:05.382Z,99117.89
2022-11-24T04:33:07.216Z,99108.47
2022-11-24T04:34:10.067Z,99109.36
2022-11-24T04:35:12.045Z,99110.25
2022-11-24T04:36:14.011Z,99100.84
2022-11-24T04:37:15.854Z,99093.20
2022-11-24T04:39:24.478Z,99107.69
2022-11-24T04:39:25.295Z,99112.75
2022-11-24T04:40:25.228Z,99113.61
2022-11-24T04:41:27.383Z,99113.58
2022-11-24T04:42:29.310Z,99114.39
2022-11-24T04:43:36.382Z,99109.19
2022-11-24T04:44:36.194Z,99100.84
2022-11-24T04:45:38.704Z,99102.55
2022-11-24T04:46:40.729Z,99102.55
2022-11-24T04:47:42.841Z,99110.19
2022-11-24T04:48:44.768Z,99099.88
2022-11-24T04:49:47.950Z,99117.64
2022-11-24T04:50:50.112Z,99106.47
2022-11-24T04:51:52.217Z,99111.55
2022-11-24T04:52:54.437Z,99104.77
2022-11-24T04:53:56.606Z,99104.86
2022-11-24T04:54:58.531Z,99109.95
2022-11-24T04:56:05.848Z,99110.80
2022-11-24T04:57:16.710Z,99110.80
2022-11-24T04:58:18.580Z,99118.48
2022-11-24T04:59:20.455Z,99120.23
2022-11-24T05:00:22.523Z,99115.92
2022-11-24T05:01:24.723Z,99127.06
2022-11-24T05:02:26.767Z,99129.58
2022-11-24T05:03:28.518Z,99130.41
2022-11-24T05:04:30.255Z,99127.91
2022-11-24T05:05:32.865Z,99130.44
2022-11-24T05:06:34.854Z,99121.78
2022-11-24T05:07:36.820Z,99131.16
2022-11-24T05:08:38.808Z,99127.80
2022-11-24T05:09:58.421Z,99125.16
2022-11-24T05:10:44.804Z,99132.83
2022-11-24T05:11:46.460Z,99131.11
2022-11-24T05:12:56.069Z,99129.47
2022-11-24T05:13:57.903Z,99130.30
2022-11-24T05:15:02.370Z,99125.96
2022-11-24T05:16:04.838Z,99132.69
2022-11-24T05:17:07.109Z,99125.16
2022-11-24T05:18:12.241Z,99132.11
2022-11-24T05:19:14.400Z,99132.91
2022-11-24T05:20:16.533Z,99122.59
2022-11-24T05:21:18.539Z,99124.17
2022-11-24T05:22:20.265Z,99126.82
2022-11-24T05:23:21.999Z,99125.23
2022-11-24T05:24:28.327Z,99124.29
2022-11-24T05:25:30.578Z,99123.48
2022-11-24T05:26:32.703Z,99124.34
2022-11-24T05:27:34.802Z,99119.11
2022-11-24T05:28:36.829Z,99118.97
2022-11-24T05:29:38.883Z,99124.05
2022-11-24T05:30:41.477Z,99129.17
2022-11-24T05:31:43.552Z,99124.98
2022-11-24T05:32:45.767Z,99126.77
2022-11-24T05:33:47.616Z,99130.99
2022-11-24T05:34:49.713Z,99139.44
2022-11-24T05:35:51.617Z,99139.44
2022-11-24T05:36:53.444Z,99149.77
2022-11-24T05:37:57.082Z,99144.76
2022-11-24T05:38:59.619Z,99144.76
2022-11-24T05:40:01.821Z,99145.65
2022-11-24T05:41:05.305Z,99143.04
2022-11-24T05:42:07.533Z,99140.42
2022-11-24T05:43:14.306Z,99156.44
2022-11-24T05:44:16.026Z,99146.17
2022-11-24T05:45:19.956Z,99151.27
2022-11-24T05:46:21.965Z,99154.68
2022-11-24T05:47:23.860Z,99156.29
2022-11-24T05:48:25.694Z,99154.44
2022-11-24T05:49:27.323Z,99155.33
2022-11-24T05:50:29.342Z,99158.88
2022-11-24T05:51:31.084Z,99158.79
2022-11-24T05:52:33.298Z,99158.64
2022-11-24T05:53:36.724Z,99161.13
2022-11-24T05:54:38.531Z,99159.56
2022-11-24T05:55:40.828Z,99158.70
2022-11-24T05:56:42.630Z,99152.68
2022-11-24T05:57:44.436Z,99162.95
2022-11-24T05:58:46.187Z,99161.16
2022-11-24T05:59:47.794Z,99162.67
2022-11-24T06:00:50.408Z,99161.77
2022-11-24T06:01:55.086Z,99156.58
2022-11-24T06:02:58.417Z,99161.61
2022-11-24T06:04:00.348Z,99165.17
2022-11-24T06:05:02.722Z,99155.78
2022-11-24T06:06:04.749Z,99160.84
2022-11-24T06:07:09.213Z,99166.89
2022-11-24T06:08:11.220Z,99162.44
2022-11-24T06:09:13.589Z,99157.94
2022-11-24T06:10:21.156Z,99158.70
2022-11-24T06:11:23.044Z,99166.17
2022-11-24T06:12:24.762Z,99160.47
2022-11-24T06:13:26.957Z,99161.98
2022-11-24T06:14:29.376Z,99161.98
2022-11-24T06:15:31.574Z,99163.03
2022-11-24T06:16:33.462Z,99165.73
2022-11-24T06:17:35.693Z,99167.36
2022-11-24T06:18:37.935Z,99171.58
2022-11-24T06:19:42.026Z,99168.05
2022-11-24T06:20:49.100Z,99167.36
2022-11-24T06:21:47.220Z,99172.52
2022-11-24T06:22:48.930Z,99165.73
2022-11-24T06:23:50.776Z,99166.52
2022-11-24T06:24:52.514Z,99166.52
2022-11-24T06:25:56.118Z,99170.64
2022-11-24T06:26:58.236Z,99173.94
2022-11-24T06:28:03.264Z,99170.25
2022-11-24T06:29:05.311Z,99170.81
2022-11-24T06:30:09.138Z,99173.34
2022-11-24T06:31:11.197Z,99172.70
2022-11-24T06:32:13.147Z,99173.34
2022-11-24T06:33:14.848Z,99165.00
2022-11-24T06:34:17.123Z,99165.00
2022-11-24T06:35:18.948Z,99173.56
2022-11-24T06:36:20.893Z,99183.63
2022-11-24T06:37:22.821Z,99177.71
2022-11-24T06:38:25.009Z,99171.16
2022-11-24T06:39:28.941Z,99172.02
2022-11-24T06:40:30.877Z,99172.02
2022-11-24T06:41:34.125Z,99171.34
2022-11-24T06:42:36.730Z,99166.21
2022-11-24T06:43:38.924Z,99177.26
2022-11-24T06:44:40.688Z,99166.97
2022-11-24T06:45:42.842Z,99175.63
2022-11-24T06:46:44.968Z,99175.94
2022-11-24T06:47:47.128Z,99182.94
2022-11-24T06:48:51.834Z,99178.74
2022-11-24T06:49:54.621Z,99179.61
2022-11-24T06:51:00.963Z,99171.25
2022-11-24T06:52:03.410Z,99172.91
2022-11-24T06:53:05.169Z,99172.85
2022-11-24T06:54:08.235Z,99165.13
2022-11-24T06:55:10.061Z,99164.27
2022-11-24T06:56:16.636Z,99169.30
2022-11-24T06:57:17.714Z,99164.10
2022-11-24T06:58:19.371Z,99168.26
2022-11-24T06:59:21.017Z,99173.31
2022-11-24T07:00:23.075Z,99169.81
2022-11-24T07:01:27.998Z,99160.40
2022-11-24T07:02:30.104Z,99163.93
2022-11-24T07:03:32.142Z,99167.46
2022-11-24T07:04:34.080Z,99164.10
2022-11-24T07:05:36.111Z,99163.27
2022-11-24T07:06:38.434Z,99169.16
2022-11-24T07:07:40.269Z,99167.42
2022-11-24T07:08:42.432Z,99166.70
2022-11-24T07:09:44.566Z,99168.46
2022-11-24T07:10:46.401Z,99165.83
2022-11-24T07:11:48.398Z,99169.13
2022-11-24T07:12:50.018Z,99167.22
2022-11-24T07:13:55.090Z,99165.38
2022-11-24T07:14:55.555Z,99164.62
2022-11-24T07:15:57.282Z,99153.75
2022-11-24T07:17:00.203Z,99167.33
2022-11-24T07:18:02.211Z,99168.12
2022-11-24T07:19:04.115Z,99160.61
2022-11-24T07:20:08.556Z,99160.61
2022-11-24T07:21:11.073Z,99167.33
2022-11-24T07:22:13.155Z,99151.08
2022-11-24T07:23:14.882Z,99150.98
2022-11-24T07:24:16.580Z,99156.75
2022-11-24T07:25:18.199Z,99158.34
2022-11-24T07:26:21.468Z,99150.80
2022-11-24T07:27:23.697Z,99155.23
2022-11-24T07:28:25.869Z,99156.93
2022-11-24T07:29:27.642Z,99151.73
2022-11-24T07:30:29.389Z,99150.14
2022-11-24T07:31:31.399Z,99156.20
2022-11-24T07:32:34.117Z,99157.91
2022-11-24T07:33:36.599Z,99154.37
2022-11-24T07:34:38.618Z,99155.27
2022-11-24T07:35:40.463Z,99143.18
2022-11-24T07:36:42.308Z,99143.18
2022-11-24T07:37:44.118Z,99159.28
2022-11-24T07:38:46.550Z,99156.97
2022-11-24T07:39:48.216Z,99155.37
2022-11-24T07:40:50.961Z,99153.02
2022-11-24T07:41:52.646Z,99157.25
2022-11-24T07:42:54.616Z,99158.77
2022-11-24T07:43:58.431Z,99160.29
2022-11-24T07:45:00.172Z,99159.28
2022-11-24T07:46:02.627Z,99155.92
2022-11-24T07:47:04.585Z,99157.77
2022-11-24T07:48:06.948Z,99160.07
2022-11-24T07:49:08.689Z,99160.07
2022-11-24T07:50:10.879Z,99158.59
2022-11-24T07:51:13.014Z,99158.59
2022-11-24T07:52:15.209Z,99149.13
2022-11-24T07:53:17.641Z,99149.09
2022-11-24T07:54:19.726Z,99154.22
2022-11-24T07:55:21.759Z,99162.59
2022-11-24T07:56:23.597Z,99164.86
2022-11-24T07:57:25.429Z,99161.39
2022-11-24T07:58:33.410Z,99154.56
2022-11-24T07:59:35.575Z,99158.11
2022-11-24T08:00:37.412Z,99156.52
2022-11-24T08:01:39.767Z,99157.62
2022-11-24T08:02:42.163Z,99161.88
2022-11-24T08:03:45.778Z,99163.93
2022-11-24T08:04:48.324Z,99167.36
2022-11-24T08:06:22.160Z,99167.36
2022-11-24T08:06:59.793Z,99167.33
2022-11-24T08:08:01.549Z,99165.59
2022-11-24T08:09:03.519Z,99165.59
2022-11-24T08:10:06.510Z,99169.09
2022-11-24T08:11:12.745Z,99169.09
2022-11-24T08:12:15.231Z,99169.81
2022-11-24T08:13:18.139Z,99162.09
2022-11-24T08:14:20.044Z,99163.93
2022-11-24T08:15:21.907Z,99173.21
2022-11-24T08:16:23.932Z,99177.36
2022-11-24T08:17:28.348Z,99178.09
2022-11-24T08:18:30.276Z,99179.86
2022-11-24T08:19:33.336Z,99173.72
2022-11-24T08:20:36.377Z,99175.27
2022-11-24T08:21:38.288Z,99175.08
2022-11-24T08:22:40.248Z,99171.91
2022-11-24T08:23:42.423Z,99171.91
2022-11-24T08:24:44.295Z,99173.61
2022-11-24T08:25:45.918Z,99177.75
2022-11-24T08:26:47.627Z,99180.28
2022-11-24T08:27:49.425Z,99180.24
2022-11-24T08:28:56.720Z,99172.70
2022-11-24T08:29:58.765Z,99175.27
2022-11-24T08:31:05.795Z,99176.05
2022-11-24T08:32:10.046Z,99177.11
2022-11-24T08:33:12.586Z,99171.16
2022-11-24T08:34:15.494Z,99176.25
2022-11-24T08:35:17.399Z,99174.36
2022-11-24T08:36:19.132Z,99166.52
2022-11-24T08:37:20.762Z,99175.08
2022-11-24T08:38:23.013Z,99163.08
2022-11-24T08:39:25.425Z,99171.00
2022-11-24T08:40:27.321Z,99166.78
2022-11-24T08:41:30.931Z,99166.67
2022-11-24T08:42:33.646Z,99156.41
2022-11-24T08:43:36.565Z,99158.06
2022-11-24T08:44:38.882Z,99158.00
2022-11-24T08:45:41.862Z,99153.84
2022-11-24T08:46:44.412Z,99155.55
2022-11-24T08:47:50.005Z,99166.59
2022-11-24T08:48:54.227Z,99161.42
2022-11-24T08:49:56.612Z,99158.78
2022-11-24T08:50:59.744Z,99157.80
2022-11-24T08:52:01.669Z,99159.88
2022-11-24T08:53:03.437Z,99156.86
2022-11-24T08:54:05.908Z,99163.61
2022-11-24T08:55:09.100Z,99155.77
2022-11-24T08:56:12.342Z,99155.70
2022-11-24T08:57:20.223Z,99165.95
2022-11-24T08:58:18.187Z,99165.05
2022-11-24T08:59:20.300Z,99157.44
2022-11-24T09:00:22.603Z,99165.00
2022-11-24T09:01:25.842Z,99160.78
2022-11-24T09:02:27.940Z,99154.26
2022-11-24T09:03:29.703Z,99155.92
2022-11-24T09:04:32.153Z,99153.36
2022-11-24T09:05:52.221Z,99144.19
2022-11-24T09:06:39.170Z,99153.58
2022-11-24T09:07:41.073Z,99153.47
2022-11-24T09:08:44.182Z,99155.05
2022-11-24T09:09:46.081Z,99152.42
2022-11-24T09:10:47.998Z,99154.07
2022-11-24T09:11:50.273Z,99148.95
2022-11-24T09:12:52.073Z,99149.81
2022-11-24T09:13:55.188Z,99146.34
2022-11-24T09:14:57.093Z,99152.27
2022-11-24T09:16:06.509Z,99139.37
2022-11-24T09:17:09.480Z,99139.37
2022-11-24T09:18:12.291Z,99151.36
2022-11-24T09:19:14.244Z,99144.53
2022-11-24T09:20:16.371Z,99147.06
2022-11-24T09:21:21.017Z,99146.39
2022-11-24T09:22:22.955Z,99143.83
2022-11-24T09:23:25.735Z,99150.61
2022-11-24T09:24:28.213Z,99143.03
2022-11-24T09:25:30.046Z,99141.22
2022-11-24T09:26:34.560Z,99136.88
2022-11-24T09:27:36.316Z,99134.40
2022-11-24T09:28:39.461Z,99140.31
2022-11-24T09:29:41.234Z,99143.86
2022-11-24T09:30:43.028Z,99146.34
2022-11-24T09:31:44.930Z,99139.37
2022-11-24T09:32:46.632Z,99141.14
2022-11-24T09:33:48.417Z,99139.67
2022-11-24T09:34:50.468Z,99135.59
2022-11-24T09:35:52.296Z,99138.16
2022-11-24T09:36:54.044Z,99138.88
2022-11-24T09:37:55.788Z,99131.01
2022-11-24T09:38:59.925Z,99134.36
2022-11-24T09:40:02.062Z,99138.58
2022-11-24T09:41:30.639Z,99137.91
2022-11-24T09:42:42.397Z,99129.11
2022-11-24T09:44:03.132Z,99132.31
2022-11-24T09:45:08.756Z,99124.41
2022-11-24T09:46:14.393Z,99138.31
2022-11-24T09:47:35.397Z,99127.14
2022-11-24T09:48:40.758Z,99132.02
2022-11-24T09:49:52.196Z,99131.11
2022-11-24T09:50:58.840Z,99128.59
2022-11-24T09:52:04.590Z,99122.88
2022-11-24T09:53:38.041Z,99125.61
2022-11-24T09:54:52.818Z,99128.21
2022-11-24T09:56:01.814Z,99124.14
2022-11-24T09:57:06.619Z,99120.64
2022-11-24T09:58:30.414Z,99121.73
2022-11-24T09:59:32.816Z,99124.41
2022-11-24T10:00:36.598Z,99116.60
2022-11-24T10:01:41.416Z,99121.05
2022-11-24T10:02:46.822Z,99117.70
2022-11-24T10:03:50.760Z,99117.81
2022-11-24T10:04:52.959Z,99115.28
2022-11-24T10:05:55.381Z,99116.04
2022-11-24T10:07:09.986Z,99120.27
2022-11-24T10:08:33.462Z,99119.36
2022-11-24T10:09:59.053Z,99115.97
2022-11-24T10:11:04.684Z,99121.81
2022-11-24T10:12:24.874Z,99114.98
2022-11-24T10:13:57.317Z,99115.03
2022-11-24T10:15:24.749Z,99118.38
2022-11-24T10:16:48.396Z,99114.72
2022-11-24T10:18:14.907Z,99106.28
2022-11-24T10:20:47.715Z,99113.84
2022-11-24T10:22:00.245Z,99122.41
2022-11-24T10:23:28.783Z,99111.95
2022-11-24T10:24:40.601Z,99110.84
2022-11-24T10:25:57.485Z,99109.85
2022-11-24T10:27:02.523Z,99115.06
2022-11-24T10:28:08.284Z,99113.61
2022-11-24T10:29:26.130Z,99122.88
2022-11-24T10:30:28.779Z,99108.28
2022-11-24T10:31:38.495Z,99114.06
2022-11-24T10:32:44.313Z,99115.72
2022-11-24T10:33:47.543Z,99114.81
2022-11-24T10:34:49.837Z,99114.41
2022-11-24T10:35:58.271Z,99110.27
2022-11-24T10:37:13.011Z,99113.66
2022-11-24T10:38:37.505Z,99116.92
2022-11-24T10:39:43.199Z,99112.50
2022-11-24T10:40:58.353Z,99113.41
2022-11-24T10:42:04.260Z,99114.52
2022-11-24T10:43:09.655Z,99115.58
2022-11-24T10:44:14.663Z,99115.50
2022-11-24T10:45:19.926Z,99111.09
2022-11-24T10:46:25.599Z,99115.98
2022-11-24T10:47:29.058Z,99112.38
2022-11-24T10:48:34.908Z,99112.33
2022-11-24T10:49:37.392Z,99110.84
2022-11-24T10:50:41.603Z,99110.77
2022-11-24T10:52:05.546Z,99104.80
2022-11-24T10:53:26.385Z,99108.98
2022-11-24T10:54:28.448Z,99115.42
2022-11-24T10:55:54.088Z,99110.94
2022-11-24T10:56:56.343Z,99109.25
2022-11-24T10:58:02.046Z,99112.94
2022-11-24T10:59:30.388Z,99111.25
2022-11-24T11:00:33.366Z,99112.94
2022-11-24T11:01:35.140Z,99118.77
2022-11-24T11:02:40.257Z,99112.73
2022-11-24T11:03:48.314Z,99111.17
2022-11-24T11:04:50.275Z,99116.50
2022-11-24T11:06:13.080Z,99111.25
2022-11-24T11:07:18.145Z,99113.08
2022-11-24T11:08:26.704Z,99124.16
2022-11-24T11:09:28.455Z,99115.72
2022-11-24T11:10:30.638Z,99113.12
2022-11-24T11:11:34.037Z,99118.25
2022-11-24T11:12:43.888Z,99117.34
2022-11-24T11:13:59.790Z,99112.98
2022-11-24T11:16:43.944Z,99108.73
2022-11-24T11:17:45.879Z,99109.73
2022-11-24T11:18:49.589Z,99117.25
2022-11-24T11:19:56.928Z,99109.55
2022-11-24T11:20:58.235Z,99107.60
2022-11-24T11:22:12.523Z,99107.60
2022-11-24T11:23:17.409Z,99112.03
2022-11-24T11:24:19.442Z,99114.42
2022-11-24T11:25:24.874Z,99113.38
2022-11-24T11:26:30.445Z,99113.38
2022-11-24T11:27:32.432Z,99112.55
2022-11-24T11:28:34.279Z,99111.03
2022-11-24T11:34:23.743Z,99106.95
2022-11-24T11:35:23.258Z,99111.81
2022-11-24T11:36:30.763Z,99101.63
2022-11-24T11:37:33.239Z,99105.34
2022-11-24T11:38:37.826Z,99102.09
2022-11-24T11:39:48.410Z,99103.70
2022-11-24T11:40:50.736Z,99098.84
2022-11-24T11:42:25.736Z,99100.73
2022-11-24T11:43:32.946Z,99096.55
2022-11-24T11:44:54.549Z,99097.34
2022-11-24T11:46:07.275Z,99099.72
2022-11-24T11:47:19.203Z,99093.03
2022-11-24T11:48:37.048Z,99089.55
2022-11-24T11:49:38.198Z,99098.02
2022-11-24T11:51:21.071Z,99091.19
2022-11-24T11:52:23.074Z,99097.25
2022-11-24T11:53:32.734Z,99094.72
2022-11-24T11:54:50.694Z,99095.59
2022-11-24T11:55:56.173Z,99106.77
2022-11-24T11:57:08.663Z,99098.23
2022-11-24T11:58:29.425Z,99095.72
2022-11-24T11:59:50.869Z,99093.90
2022-11-24T12:02:18.857Z,99091.41
2022-11-24T12:03:29.482Z,99096.83
2022-11-24T12:04:53.935Z,99089.13
2022-11-24T12:06:18.110Z,99093.58
2022-11-24T12:07:45.102Z,99095.97
2022-11-24T12:09:20.988Z,99087.47
2022-11-24T12:10:36.467Z,99095.23
2022-11-24T12:11:44.935Z,99092.75
2022-11-24T12:12:56.503Z,99100.32
2022-11-24T12:14:19.316Z,99102.02
2022-11-24T12:15:35.428Z,99099.44
2022-11-24T12:16:58.663Z,99103.70
2022-11-24T12:18:33.052Z,99095.19
2022-11-24T12:19:29.175Z,99105.80
2022-11-24T12:20:40.997Z,99101.69
2022-11-24T12:22:04.768Z,99104.03
2022-11-24T12:23:30.016Z,99104.72
2022-11-24T12:24:47.420Z,99097.06
2022-11-24T12:26:05.335Z,99098.62
2022-11-24T12:28:38.240Z,99103.02
2022-11-24T12:30:07.582Z,99102.47
2022-11-24T12:31:19.605Z,99099.76
2022-11-24T12:32:34.508Z,99104.11
2022-11-24T12:34:01.703Z,99104.03
2022-11-24T12:35:35.644Z,99105.67
2022-11-24T12:37:14.629Z,99098.71
2022-11-24T12:38:32.445Z,99103.80
2022-11-24T12:39:44.791Z,99107.37
2022-11-24T12:42:31.369Z,99099.85
2022-11-24T12:43:35.895Z,99108.52
2022-11-24T12:44:53.710Z,99107.73
2022-11-24T12:46:19.042Z,99105.33
2022-11-24T12:47:34.457Z,99106.98
2022-11-24T12:49:02.876Z,99101.94
2022-11-24T12:50:17.166Z,99093.98
2022-11-24T12:51:34.897Z,99097.28
2022-11-24T12:52:59.036Z,99094.81
2022-11-24T12:54:04.505Z,99106.59
2022-11-24T12:55:20.118Z,99107.19
2022-11-24T12:56:29.639Z,99108.84
2022-11-24T12:57:41.331Z,99101.87
2022-11-24T12:58:58.924Z,99108.92
2022-11-24T13:00:07.352Z,99109.03
2022-11-24T13:01:28.750Z,99105.59
2022-11-24T13:02:58.480Z,99102.23
2022-11-24T13:04:16.427Z,99104.81
2022-11-24T13:05:43.700Z,99101.23
2022-11-24T13:06:55.073Z,99101.37
2022-11-24T13:08:00.678Z,99101.33
2022-11-24T13:09:10.721Z,99101.18
2022-11-24T13:10:58.124Z,99101.05
2022-11-24T13:11:36.958Z,99105.34
2022-11-24T13:12:56.592Z,99100.91
2022-11-24T13:14:02.067Z,99103.29
2022-11-24T13:15:07.923Z,99108.84
2022-11-24T13:17:43.508Z,99097.02
2022-11-24T13:18:58.381Z,99109.03
2022-11-24T13:20:22.247Z,99102.79
2022-11-24T13:21:33.623Z,99103.80
2022-11-24T13:22:36.802Z,99107.15
2022-11-24T13:23:38.733Z,99105.45
2022-11-24T13:24:42.073Z,99103.70
2022-11-24T13:25:47.640Z,99109.58
2022-11-24T13:26:52.969Z,99101.87
2022-11-24T13:29:29.446Z,99105.34
2022-11-24T13:30:38.218Z,99108.42
2022-11-24T13:31:40.266Z,99111.77
2022-11-24T13:32:46.138Z,99111.73
2022-11-24T13:33:48.063Z,99115.98
2022-11-24T13:34:53.933Z,99115.86
2022-11-24T13:36:06.097Z,99109.80
2022-11-24T13:37:31.784Z,99118.09
2022-11-24T13:38:43.120Z,99117.36
2022-11-24T13:39:57.508Z,99114.11
2022-11-24T13:41:13.341Z,99119.70
2022-11-24T13:42:04.688Z,99121.39
2022-11-24T13:43:10.367Z,99125.66
2022-11-24T13:44:18.962Z,99117.19
2022-11-24T13:45:44.064Z,99123.09
2022-11-24T13:47:05.124Z,99117.09
2022-11-24T13:48:22.787Z,99122.36
2022-11-24T13:49:39.785Z,99124.79
2022-11-24T13:50:51.669Z,99120.25
2022-11-24T13:51:57.116Z,99118.45
2022-11-24T13:53:11.907Z,99128.73
2022-11-24T13:54:32.461Z,99128.72
2022-11-24T13:55:33.604Z,99125.19
2022-11-24T13:56:36.808Z,99132.30
2022-11-24T13:57:51.080Z,99135.47
2022-11-24T13:59:02.363Z,99136.34
2022-11-24T14:00:06.766Z,99132.77
2022-11-24T14:01:17.936Z,99126.58
2022-11-24T14:02:43.531Z,99132.35
2022-11-24T14:04:30.096Z,99128.91
2022-11-24T14:05:17.633Z,99138.58
2022-11-24T14:06:24.152Z,99135.11
2022-11-24T14:07:26.341Z,99134.59
2022-11-24T14:08:32.137Z,99134.55
2022-11-24T14:09:37.683Z,99134.45
2022-11-24T14:10:42.288Z,99133.32
2022-11-24T14:11:47.957Z,99129.11
2022-11-24T14:13:09.779Z,99134.33
2022-11-24T14:14:16.008Z,99132.03
2022-11-24T14:15:26.009Z,99129.38
2022-11-24T14:16:28.376Z,99141.98
2022-11-24T14:17:30.976Z,99128.86
2022-11-24T14:18:35.645Z,99140.06
2022-11-24T14:19:37.900Z,99134.92
2022-11-24T14:20:40.488Z,99140.29
2022-11-24T14:21:42.542Z,99146.38
2022-11-24T14:22:44.672Z,99136.80
2022-11-24T14:23:50.306Z,99144.38
2022-11-24T14:24:58.217Z,99142.44
2022-11-24T14:26:00.489Z,99140.54
2022-11-24T14:27:02.785Z,99140.59
2022-11-24T14:34:48.454Z,99143.36
2022-11-24T14:36:01.452Z,99136.47
2022-11-24T14:39:19.422Z,99139.87
2022-11-24T14:40:46.248Z,99154.59
2022-11-24T14:41:52.924Z,99145.88
2022-11-24T14:44:43.173Z,99150.28
2022-11-24T14:45:52.389Z,99143.12
2022-11-24T14:47:03.781Z,99145.59
2022-11-24T14:48:09.358Z,99144.90
2022-11-24T14:49:21.515Z,99146.56
2022-11-24T14:50:23.596Z,99144.81
2022-11-24T14:51:35.113Z,99143.02
2022-11-24T14:52:47.625Z,99145.73
2022-11-24T14:53:56.527Z,99153.30
2022-11-24T14:55:17.390Z,99152.17
2022-11-24T14:56:30.858Z,99148.75
2022-11-24T14:57:39.202Z,99155.58
2022-11-24T14:58:42.694Z,99153.63
2022-11-24T14:59:48.314Z,99158.96
2022-11-24T15:01:10.994Z,99158.96
2022-11-24T15:02:36.443Z,99155.66
2022-11-24T15:03:38.435Z,99159.92
2022-11-24T15:05:02.031Z,99159.73
2022-11-24T15:06:00.040Z,99162.27
2022-11-24T15:07:14.698Z,99163.75
2022-11-24T15:08:17.646Z,99155.89
2022-11-24T15:09:31.955Z,99163.51
2022-11-24T15:10:38.194Z,99161.84
2022-11-24T15:11:40.105Z,99161.80
2022-11-24T15:12:46.010Z,99160.30
2022-11-24T15:13:53.526Z,99159.55
2022-11-24T15:15:01.790Z,99162.98
2022-11-24T15:16:19.180Z,99164.58
2022-11-24T15:17:24.987Z,99160.16
2022-11-24T15:18:30.552Z,99161.75
2022-11-24T15:19:36.343Z,99163.30
2022-11-24T15:20:41.928Z,99160.77
2022-11-24T15:21:43.885Z,99160.88
2022-11-24T15:22:46.816Z,99155.69
2022-11-24T15:25:34.490Z,99160.35
2022-11-24T15:26:41.690Z,99160.79
2022-11-24T15:27:40.260Z,99163.66
2022-11-24T15:28:42.263Z,99169.09
2022-11-24T15:29:44.680Z,99165.56
2022-11-24T15:30:47.475Z,99161.91
2022-11-24T15:31:52.876Z,99173.02
2022-11-24T15:32:56.162Z,99167.05
2022-11-24T15:33:58.008Z,99158.61
2022-11-24T15:34:59.708Z,99167.86
2022-11-24T15:36:06.059Z,99159.14
2022-11-24T15:37:09.133Z,99163.51
2022-11-24T15:38:12.075Z,99161.20
2022-11-24T15:39:13.808Z,99166.38
2022-11-24T15:40:16.371Z,99169.67
2022-11-24T15:41:25.041Z,99164.48
2022-11-24T15:42:27.819Z,99166.12
2022-11-24T15:43:40.709Z,99167.25
2022-11-24T15:44:46.379Z,99169.91
2022-11-24T15:45:48.331Z,99174.17
2022-11-24T15:46:50.853Z,99174.17
2022-11-24T15:47:53.262Z,99180.92
2022-11-24T15:48:56.633Z,99174.72
2022-11-24T15:49:58.940Z,99169.36
2022-11-24T15:51:04.053Z,99168.59
2022-11-24T15:52:05.870Z,99170.97
2022-11-24T15:53:20.370Z,99172.25
2022-11-24T15:54:22.211Z,99175.83
2022-11-24T15:55:24.034Z,99177.53
2022-11-24T15:56:33.313Z,99176.89
2022-11-24T15:57:35.670Z,99176.07
2022-11-24T15:58:37.526Z,99173.22
2022-11-24T15:59:39.668Z,99174.86
2022-11-24T16:00:43.086Z,99175.48
2022-11-24T16:01:45.785Z,99174.35
2022-11-24T16:02:48.433Z,99168.28
2022-11-24T16:03:50.683Z,99175.73
2022-11-24T16:04:52.453Z,99169.24
2022-11-24T16:05:57.462Z,99175.30
2022-11-24T16:06:59.806Z,99168.47
2022-11-24T16:08:03.928Z,99175.45
2022-11-24T16:09:07.773Z,99179.72
2022-11-24T16:10:13.650Z,99178.88
2022-11-24T16:11:15.487Z,99182.96
2022-11-24T16:12:17.509Z,99179.72
2022-11-24T16:13:19.682Z,99172.00
2022-11-24T16:14:22.417Z,99181.21